Hookerton, NC (28538)

12:21 PM EDT on August 31, 2015 (GMT -0400)
Kinston Regional Jetport / Stallings Field | | Change Station
CLOSE
Current Station
Airport
Location: Kinston,
Elevation: 95 ft
Nearby Weather Stations

Elev 95 ft 35.33 °N, 77.61 °W | Updated 25 minutes ago

Rain
Rain
72 °F
Feels Like 72 °F
N
5
Wind Variable Wind from North

Today
High -- | Low -- °F
--% Chance of Precip.
Yesterday
High -- | Low -- °F
Precip. -- in
6:41 AM 7:38 PM
Waning Gibbous, 95% visible
Pressure 30.15 in
Visibility 3.0 miles
Clouds Mostly Cloudy 600 ft
Overcast 1300 ft
Dew Point 70 °F
Humidity 94%
Rainfall 0.02 in
Snow Depth Not available.
UV 3 out of 12
Pollen 7.40 out of 12
Air Quality Not available.
Flu Activity Not available.
METAR KISO 311556Z 35004KT 3SM RA BKN006 OVC013 22/21 A3015 RMK AO2
Pressure 30.15 in
Visibility 3.0 miles
Clouds Mostly Cloudy 600 ft
Overcast 1300 ft
Dew Point 70 °F
Humidity 94%
Rainfall 0.02 in
Snow Depth Not available.
UV 3 out of 12
Pollen 7.40 out of 12
Air Quality Not available.
Flu Activity Not available.
METAR KISO 311556Z 35004KT 3SM RA BKN006 OVC013 22/21 A3015 RMK AO2

10-Day Weather Forecast

×

Almanac

Astronomy

Aug. 31, 2015 Rise Set
Actual Time
Civil Twilight
Nautical Twilight
Astronomical Twilight
Moon
Length of Visible Light
Length of Day
Tomorrow will be .
, % of the Moon is Illuminated

Today's Extremes

State Highs State Lows

Community

WunderPhotos

Upload Photos

1,851,302 photos uploaded!

WunderBlogs® & News

Nearby

Air Quality

  Air Quality AQ Index Pollutant
Not available.

Snow Depth

Station Depth Elevation

Earthquake Activity

City Distance Mag. Time & Date
Minimum magnitude displayed is 2.5.

Coastal Water Temperatures

Place Temperature

Stations

Nearby Weather Stations

Station Location Temp. Windchill Dew Point Humidity Wind Precip. Elev Updated Type